Time;durP1;ratioP1;P1;durP2;ratioP2;P2;SDS_P1;SDS_P2;PMS_P1;PMS_P2;Temp;Humidity;BMP_temperature;BMP_pressure;BME280_temperature;BME280_humidity;BME280_pressure;Samples;Min_cycle;Max_cycle;Signal;HPM_P1;HPM_P2
2024/02/17 00:00:34;;;;;;;7.18;3.05;;;9.20;98.70;;;;;;5045487;28;20028;-67
2024/02/17 00:03:00;;;;;;;6.20;2.78;;;9.20;98.80;;;;;;5045271;28;20045;-67
2024/02/17 00:05:25;;;;;;;4.80;2.95;;;9.20;98.60;;;;;;5052366;28;20453;-67
2024/02/17 00:07:52;;;;;;;6.63;2.60;;;9.10;98.50;;;;;;5044514;28;20036;-67
2024/02/17 00:10:18;;;;;;;6.38;3.03;;;9.20;98.00;;;;;;5049565;28;20025;-67
2024/02/17 00:12:44;;;;;;;8.05;3.58;;;9.10;97.80;;;;;;5046417;28;20070;-67
2024/02/17 00:15:09;;;;;;;5.28;2.70;;;9.20;97.50;;;;;;5046787;28;20509;-68
2024/02/17 00:17:36;;;;;;;5.63;2.65;;;9.10;97.40;;;;;;5042577;28;20094;-68
2024/02/17 00:20:02;;;;;;;6.30;3.13;;;9.10;97.10;;;;;;5048645;28;20580;-67
2024/02/17 00:22:27;;;;;;;7.60;2.88;;;9.10;97.20;;;;;;5046974;28;20435;-67
2024/02/17 00:24:53;;;;;;;5.85;3.08;;;9.00;97.40;;;;;;5047763;28;20091;-67
2024/02/17 00:27:19;;;;;;;6.72;3.03;;;9.00;97.40;;;;;;5045217;28;20029;-67
2024/02/17 00:29:44;;;;;;;6.32;3.22;;;9.00;97.40;;;;;;5050077;28;20038;-68
2024/02/17 00:32:10;;;;;;;4.72;2.53;;;8.90;97.50;;;;;;5046747;28;20427;-67
2024/02/17 00:34:36;;;;;;;8.50;3.15;;;8.90;97.70;;;;;;5045615;28;20079;-67
2024/02/17 00:37:01;;;;;;;6.22;2.72;;;8.90;97.60;;;;;;5044759;28;20178;-67
2024/02/17 00:39:26;;;;;;;7.10;3.38;;;8.90;97.50;;;;;;5050131;28;20065;-68
2024/02/17 00:41:52;;;;;;;5.57;3.00;;;8.90;97.40;;;;;;5045915;28;20129;-68
2024/02/17 00:44:17;;;;;;;5.18;2.55;;;9.00;96.80;;;;;;5046097;28;20044;-68
2024/02/17 00:46:43;;;;;;;5.53;2.63;;;9.00;96.60;;;;;;5028523;28;20052;-68
2024/02/17 00:49:09;;;;;;;5.05;2.50;;;9.00;96.60;;;;;;5050989;28;20048;-68
2024/02/17 00:51:35;;;;;;;4.80;2.58;;;9.00;96.90;;;;;;5049898;28;20024;-68
2024/02/17 00:54:00;;;;;;;4.95;2.45;;;8.90;96.70;;;;;;5048479;28;20066;-67
2024/02/17 00:56:26;;;;;;;5.10;2.75;;;9.00;96.50;;;;;;5047775;28;20123;-68
2024/02/17 00:58:51;;;;;;;5.45;2.63;;;8.90;96.60;;;;;;5047530;28;20029;-67
2024/02/17 01:01:17;;;;;;;5.88;2.80;;;8.90;96.60;;;;;;5047112;28;20043;-68
2024/02/17 01:03:42;;;;;;;5.55;2.13;;;8.80;96.50;;;;;;5046263;28;20124;-68
2024/02/17 01:06:09;;;;;;;6.35;2.85;;;8.70;96.40;;;;;;5044906;28;20348;-68
2024/02/17 01:08:35;;;;;;;4.82;2.35;;;8.60;96.40;;;;;;5046238;28;20416;-67
2024/02/17 01:11:00;;;;;;;4.32;2.20;;;8.60;96.40;;;;;;5046476;28;20440;-68
2024/02/17 01:13:26;;;;;;;4.88;2.10;;;8.50;96.20;;;;;;5043800;28;20036;-67
2024/02/17 01:15:52;;;;;;;9.02;2.50;;;8.50;96.30;;;;;;5046040;28;20486;-66
2024/02/17 01:18:17;;;;;;;4.45;2.38;;;8.50;96.40;;;;;;5052793;28;20095;-67
2024/02/17 01:20:42;;;;;;;4.70;1.85;;;8.50;96.40;;;;;;5042987;28;20205;-66
2024/02/17 01:23:08;;;;;;;3.13;1.73;;;8.50;96.20;;;;;;5050083;28;20032;-66
2024/02/17 01:25:33;;;;;;;4.55;1.88;;;8.50;96.10;;;;;;5055491;28;20047;-67
2024/02/17 01:27:59;;;;;;;4.65;2.15;;;8.60;95.80;;;;;;5045546;28;20045;-67
2024/02/17 01:30:24;;;;;;;4.13;1.55;;;8.50;95.60;;;;;;5047367;28;20362;-67
2024/02/17 01:32:50;;;;;;;5.95;1.77;;;8.50;95.10;;;;;;5044929;28;20048;-66
2024/02/17 01:35:15;;;;;;;3.15;1.65;;;8.50;95.10;;;;;;5039078;28;20060;-66
2024/02/17 01:37:41;;;;;;;3.15;1.48;;;8.40;95.40;;;;;;5043785;28;20171;-66
2024/02/17 01:40:07;;;;;;;4.22;1.70;;;8.40;95.50;;;;;;5046406;28;20036;-67
2024/02/17 01:42:32;;;;;;;3.83;1.67;;;8.40;95.60;;;;;;5043793;28;20033;-66
2024/02/17 01:44:58;;;;;;;5.90;1.98;;;8.40;95.80;;;;;;5043673;28;20051;-67
2024/02/17 01:47:23;;;;;;;3.92;1.92;;;8.40;95.90;;;;;;5046707;28;20060;-67
2024/02/17 01:49:49;;;;;;;5.53;2.22;;;8.40;96.10;;;;;;5029097;28;20064;-66
2024/02/17 01:52:15;;;;;;;5.38;2.83;;;8.30;96.30;;;;;;5050863;28;20404;-66
2024/02/17 01:54:42;;;;;;;4.25;1.92;;;8.30;96.50;;;;;;5046724;28;20049;-66
2024/02/17 01:57:09;;;;;;;7.32;2.35;;;8.30;96.80;;;;;;5046445;28;20033;-67
2024/02/17 01:59:36;;;;;;;4.47;2.67;;;8.20;96.80;;;;;;5043881;28;20383;-67
2024/02/17 02:02:02;;;;;;;5.35;2.35;;;8.20;97.00;;;;;;5043646;28;20395;-67
2024/02/17 02:04:28;;;;;;;5.40;2.40;;;8.20;97.10;;;;;;5021302;28;20081;-67
2024/02/17 02:06:53;;;;;;;5.53;2.17;;;8.20;97.10;;;;;;5045648;28;20384;-67
2024/02/17 02:09:23;;;;;;;5.22;2.75;;;8.20;97.20;;;;;;5043946;28;20471;-67
2024/02/17 02:11:53;;;;;;;4.85;2.20;;;8.20;97.10;;;;;;5043975;28;20471;-66
2024/02/17 02:14:19;;;;;;;6.32;2.88;;;8.20;97.20;;;;;;5044459;28;20111;-67
2024/02/17 02:16:48;;;;;;;5.78;2.67;;;8.20;97.10;;;;;;5044869;28;20079;-67
2024/02/17 02:19:14;;;;;;;5.00;2.80;;;8.20;97.20;;;;;;5042102;28;20104;-68
2024/02/17 02:21:40;;;;;;;5.93;2.55;;;8.20;97.30;;;;;;5037932;28;20067;-66
2024/02/17 02:24:06;;;;;;;7.22;2.80;;;8.10;97.40;;;;;;5046064;28;20394;-67
2024/02/17 02:26:32;;;;;;;3.25;1.70;;;8.10;97.40;;;;;;5046986;28;20063;-67
2024/02/17 02:28:58;;;;;;;5.63;2.35;;;8.10;97.50;;;;;;5043200;28;20040;-68
2024/02/17 02:31:24;;;;;;;4.15;1.90;;;8.10;97.50;;;;;;5046422;28;20037;-67
2024/02/17 02:33:51;;;;;;;5.03;2.30;;;8.10;97.50;;;;;;5041839;28;20340;-67
2024/02/17 02:36:17;;;;;;;5.55;2.35;;;8.00;97.60;;;;;;5042791;28;20182;-68
2024/02/17 02:38:43;;;;;;;4.32;2.28;;;8.00;97.80;;;;;;5043678;28;20554;-68
2024/02/17 02:41:10;;;;;;;5.10;2.45;;;8.00;98.00;;;;;;5045362;28;20139;-66
2024/02/17 02:43:36;;;;;;;4.55;2.38;;;7.90;98.10;;;;;;5045270;28;20029;-66
2024/02/17 02:46:01;;;;;;;4.82;2.10;;;8.00;98.10;;;;;;5026391;28;20079;-68
2024/02/17 02:48:27;;;;;;;3.78;2.45;;;7.90;98.20;;;;;;5047598;28;20104;-68
2024/02/17 02:50:52;;;;;;;6.22;2.83;;;7.90;98.00;;;;;;5046598;28;20052;-68
2024/02/17 02:53:18;;;;;;;4.40;2.58;;;7.90;97.80;;;;;;5038483;28;20123;-69
2024/02/17 02:55:43;;;;;;;3.67;2.15;;;7.80;97.60;;;;;;5044773;28;20039;-66
2024/02/17 02:58:09;;;;;;;2.95;1.52;;;7.90;97.10;;;;;;5040865;28;20358;-67
2024/02/17 03:00:35;;;;;;;5.63;1.42;;;7.80;96.60;;;;;;5040290;28;20045;-67
2024/02/17 03:03:00;;;;;;;1.85;1.17;;;7.90;95.30;;;;;;5046927;28;20029;-67
2024/02/17 03:05:26;;;;;;;4.28;1.38;;;7.80;95.10;;;;;;5044120;28;20094;-67
2024/02/17 03:07:51;;;;;;;1.55;0.88;;;7.90;95.00;;;;;;5050530;28;20024;-67
2024/02/17 03:10:17;;;;;;;3.40;1.65;;;7.90;95.50;;;;;;5043668;28;20051;-67
2024/02/17 03:12:42;;;;;;;3.20;1.20;;;7.90;95.70;;;;;;5044305;28;20045;-66
2024/02/17 03:15:08;;;;;;;1.55;1.02;;;7.80;95.80;;;;;;5024457;28;20115;-67
2024/02/17 03:17:35;;;;;;;2.95;1.50;;;7.80;96.00;;;;;;5045668;28;20435;-66
2024/02/17 03:20:01;;;;;;;2.72;1.40;;;7.80;96.10;;;;;;5045276;28;20037;-66
2024/02/17 03:22:26;;;;;;;2.33;1.40;;;7.90;95.70;;;;;;5032101;28;20029;-67
2024/02/17 03:24:52;;;;;;;2.03;1.02;;;7.80;95.30;;;;;;5043657;28;20124;-66
2024/02/17 03:27:17;;;;;;;1.83;1.10;;;7.80;95.50;;;;;;5043919;28;20139;-67
2024/02/17 03:29:43;;;;;;;2.33;1.10;;;7.90;95.40;;;;;;5045816;28;20440;-66
2024/02/17 03:32:08;;;;;;;1.52;1.13;;;7.80;95.10;;;;;;5046852;28;20028;-66
2024/02/17 03:34:34;;;;;;;1.75;0.98;;;7.80;94.80;;;;;;5043058;28;20062;-67
2024/02/17 03:37:00;;;;;;;0.65;0.50;;;7.80;94.70;;;;;;5045227;28;20036;-67
2024/02/17 03:39:25;;;;;;;1.80;1.00;;;7.80;94.70;;;;;;5048076;28;20114;-67
2024/02/17 03:41:55;;;;;;;0.57;0.50;;;7.80;94.80;;;;;;5040922;28;20032;-67
2024/02/17 03:44:20;;;;;;;0.45;0.45;;;7.70;94.40;;;;;;5050761;28;20351;-67
2024/02/17 03:46:46;;;;;;;0.80;0.60;;;7.70;94.00;;;;;;5048389;28;20037;-67
2024/02/17 03:49:11;;;;;;;0.90;0.55;;;7.70;93.90;;;;;;5051280;28;20186;-67
2024/02/17 03:51:37;;;;;;;0.60;0.32;;;7.70;93.50;;;;;;5048377;28;20040;-67
2024/02/17 03:54:03;;;;;;;0.38;0.38;;;7.70;93.40;;;;;;5048657;28;20029;-67
2024/02/17 03:56:28;;;;;;;0.98;0.57;;;7.70;93.60;;;;;;5046368;28;20122;-67
2024/02/17 03:58:54;;;;;;;1.10;0.70;;;7.70;94.10;;;;;;5051934;28;20032;-67
2024/02/17 04:01:20;;;;;;;1.15;0.35;;;7.70;94.30;;;;;;5045564;28;20032;-69
2024/02/17 04:03:46;;;;;;;0.98;0.60;;;7.60;94.80;;;;;;5050018;28;20025;-67
2024/02/17 04:06:12;;;;;;;0.55;0.45;;;7.60;94.90;;;;;;5030929;28;20120;-68
2024/02/17 04:08:37;;;;;;;0.95;0.80;;;7.60;95.10;;;;;;5052949;28;20467;-67
2024/02/17 04:11:03;;;;;;;1.70;0.68;;;7.60;94.90;;;;;;5048474;28;20194;-68
2024/02/17 04:13:29;;;;;;;0.40;0.40;;;7.60;95.10;;;;;;5048473;28;20024;-67
2024/02/17 04:15:54;;;;;;;1.65;0.90;;;7.50;95.50;;;;;;5043510;28;20368;-67
2024/02/17 04:18:20;;;;;;;0.73;0.52;;;7.50;95.60;;;;;;5051247;28;20120;-67
2024/02/17 04:20:47;;;;;;;2.03;0.60;;;7.40;95.80;;;;;;5053298;28;20442;-67
2024/02/17 04:23:13;;;;;;;0.70;0.45;;;7.40;96.00;;;;;;5053151;28;20090;-68
2024/02/17 04:25:40;;;;;;;1.50;0.40;;;7.40;95.90;;;;;;5048927;28;20455;-67
2024/02/17 04:28:06;;;;;;;0.52;0.40;;;7.40;96.00;;;;;;5057386;28;20033;-68
2024/02/17 04:30:32;;;;;;;0.75;0.50;;;7.40;96.10;;;;;;5052055;28;20043;-67
2024/02/17 04:32:58;;;;;;;0.50;0.50;;;7.40;96.10;;;;;;5054205;28;20033;-67
2024/02/17 04:35:24;;;;;;;0.50;0.50;;;7.40;96.00;;;;;;5050175;28;20021;-67
2024/02/17 04:37:51;;;;;;;1.63;0.75;;;7.40;96.10;;;;;;5057081;28;20082;-67
2024/02/17 04:40:16;;;;;;;0.43;0.32;;;7.30;96.20;;;;;;5049583;28;20029;-67
2024/02/17 04:42:42;;;;;;;0.52;0.35;;;7.40;96.30;;;;;;5055547;28;20029;-67
2024/02/17 04:45:09;;;;;;;0.75;0.50;;;7.30;96.60;;;;;;5053274;28;20024;-67
2024/02/17 04:47:34;;;;;;;0.90;0.45;;;7.30;97.00;;;;;;5061668;28;20059;-67
2024/02/17 04:50:00;;;;;;;2.08;0.85;;;7.20;97.40;;;;;;5052036;28;20510;-67
2024/02/17 04:52:25;;;;;;;0.82;0.63;;;7.10;97.80;;;;;;5060780;28;20032;-67
2024/02/17 04:54:51;;;;;;;0.77;0.50;;;7.10;98.00;;;;;;5037703;28;20066;-67
2024/02/17 04:57:17;;;;;;;1.52;0.80;;;7.10;98.40;;;;;;5048751;28;20040;-67
2024/02/17 04:59:43;;;;;;;1.55;0.80;;;7.00;98.40;;;;;;5050591;28;20032;-67
2024/02/17 05:02:08;;;;;;;0.52;0.52;;;7.00;98.60;;;;;;5049090;28;20039;-67
2024/02/17 05:04:34;;;;;;;0.95;0.70;;;7.00;98.70;;;;;;5051334;28;20528;-68
2024/02/17 05:06:59;;;;;;;1.80;1.20;;;6.90;98.70;;;;;;5054756;28;20339;-67
2024/02/17 05:09:25;;;;;;;2.33;1.00;;;6.80;98.80;;;;;;5053292;28;20052;-67
2024/02/17 05:11:51;;;;;;;3.15;1.10;;;6.80;99.00;;;;;;5053802;28;20095;-67
2024/02/17 05:14:17;;;;;;;1.33;0.68;;;6.70;98.90;;;;;;5051532;28;20048;-66
2024/02/17 05:16:44;;;;;;;0.80;0.65;;;6.70;99.10;;;;;;5047736;28;20472;-68
2024/02/17 05:19:13;;;;;;;1.20;0.85;;;6.70;99.10;;;;;;5051330;28;20032;-67
2024/02/17 05:21:42;;;;;;;1.38;1.05;;;6.70;99.10;;;;;;5050434;28;20135;-67
2024/02/17 05:24:07;;;;;;;2.40;0.80;;;6.60;99.10;;;;;;5050373;28;20055;-67
2024/02/17 05:26:34;;;;;;;0.47;0.47;;;6.60;99.00;;;;;;5054127;28;20048;-67
2024/02/17 05:29:00;;;;;;;0.50;0.45;;;6.60;99.00;;;;;;5052541;28;20025;-65
2024/02/17 05:31:27;;;;;;;0.77;0.60;;;6.50;98.60;;;;;;5050994;28;20048;-65
2024/02/17 05:33:53;;;;;;;1.38;1.05;;;6.40;98.40;;;;;;5046950;28;20045;-66
2024/02/17 05:36:18;;;;;;;1.05;0.50;;;6.40;98.40;;;;;;5051595;28;20089;-65
2024/02/17 05:38:44;;;;;;;0.82;0.50;;;6.30;98.30;;;;;;5047935;28;20117;-65
2024/02/17 05:41:09;;;;;;;3.17;0.77;;;6.30;98.20;;;;;;5052542;28;20105;-65
2024/02/17 05:43:35;;;;;;;1.95;0.50;;;6.20;98.10;;;;;;5052603;28;20124;-65
2024/02/17 05:46:00;;;;;;;1.95;0.63;;;6.20;98.20;;;;;;5050268;28;20036;-65
2024/02/17 05:48:26;;;;;;;0.60;0.50;;;6.20;98.10;;;;;;5048704;28;20382;-66
2024/02/17 05:50:53;;;;;;;1.15;0.60;;;6.20;98.20;;;;;;5048007;28;20064;-66
2024/02/17 05:53:20;;;;;;;1.08;0.70;;;6.10;98.10;;;;;;5053341;28;20736;-65
2024/02/17 05:55:46;;;;;;;0.68;0.60;;;6.10;98.30;;;;;;5053661;28;20446;-65
2024/02/17 05:58:11;;;;;;;1.85;0.80;;;6.10;98.30;;;;;;5049736;28;20356;-65
2024/02/17 06:00:37;;;;;;;2.25;0.70;;;6.10;98.30;;;;;;5047538;28;20033;-66
2024/02/17 06:03:02;;;;;;;1.15;0.57;;;6.00;98.40;;;;;;5050322;28;20025;-66
2024/02/17 06:05:29;;;;;;;1.10;0.70;;;6.00;98.10;;;;;;5034899;28;20099;-65
2024/02/17 06:07:54;;;;;;;1.02;0.68;;;6.00;98.10;;;;;;5053704;28;20364;-65
2024/02/17 06:10:20;;;;;;;1.38;0.80;;;6.00;98.10;;;;;;5052627;28;20109;-65
2024/02/17 06:12:45;;;;;;;0.90;0.70;;;6.00;98.10;;;;;;5053661;28;20028;-67
2024/02/17 06:15:11;;;;;;;2.45;1.02;;;6.00;98.30;;;;;;5035639;28;20079;-64
2024/02/17 06:17:42;;;;;;;1.05;0.75;;;6.00;98.20;;;;;;5051300;28;20120;-65
2024/02/17 06:22:54;;;;;;;0.95;0.50;;;6.00;97.90;;;;;;5050617;28;20120;-65
2024/02/17 06:25:20;;;;;;;1.92;0.70;;;6.00;97.90;;;;;;5048887;28;20116;-65
2024/02/17 06:27:45;;;;;;;1.83;0.70;;;6.00;97.70;;;;;;5054512;28;20136;-65
2024/02/17 06:30:14;;;;;;;0.65;0.60;;;6.00;97.70;;;;;;5049017;28;20112;-65
2024/02/17 06:32:39;;;;;;;0.63;0.47;;;5.90;97.30;;;;;;5044301;28;20036;-66
2024/02/17 06:35:05;;;;;;;0.80;0.50;;;5.90;96.90;;;;;;5046429;28;20431;-65
2024/02/17 06:37:31;;;;;;;0.57;0.40;;;5.90;96.50;;;;;;5048360;28;20059;-66
2024/02/17 06:39:56;;;;;;;0.30;0.30;;;5.80;95.80;;;;;;5048262;28;20059;-66
2024/02/17 06:42:22;;;;;;;2.42;0.40;;;5.80;96.00;;;;;;5050155;28;20029;-65
2024/02/17 06:44:47;;;;;;;0.45;0.45;;;5.80;95.90;;;;;;5050715;28;20131;-65
2024/02/17 06:47:13;;;;;;;0.45;0.40;;;5.70;95.70;;;;;;5045211;28;20122;-65
2024/02/17 06:49:38;;;;;;;1.83;0.80;;;5.70;95.40;;;;;;5045239;28;20325;-66
2024/02/17 06:52:04;;;;;;;1.02;0.47;;;5.70;95.20;;;;;;5044472;28;20472;-65
2024/02/17 06:54:30;;;;;;;0.30;0.30;;;5.60;94.90;;;;;;5045487;28;20029;-66
2024/02/17 06:56:57;;;;;;;1.40;0.35;;;5.50;94.80;;;;;;5048603;28;20040;-66
2024/02/17 06:59:23;;;;;;;0.43;0.43;;;5.50;94.40;;;;;;5045117;28;20037;-67
2024/02/17 07:01:48;;;;;;;0.40;0.30;;;5.40;94.40;;;;;;5043784;28;20029;-66
2024/02/17 07:04:15;;;;;;;0.70;0.30;;;5.40;94.20;;;;;;5047204;28;20033;-67
2024/02/17 07:06:43;;;;;;;0.22;0.22;;;5.40;93.70;;;;;;5047985;28;20041;-66
2024/02/17 07:09:11;;;;;;;0.40;0.30;;;5.40;93.90;;;;;;5028794;28;20092;-66
2024/02/17 07:11:37;;;;;;;0.75;0.45;;;5.50;92.90;;;;;;5042861;28;20021;-69
2024/02/17 07:14:02;;;;;;;0.75;0.30;;;5.50;92.50;;;;;;5050679;28;20036;-69
2024/02/17 07:16:28;;;;;;;3.25;0.80;;;5.50;92.50;;;;;;5059261;28;20117;-70
2024/02/17 07:18:57;;;;;;;0.30;0.30;;;5.60;92.80;;;;;;5054620;28;20147;-69
2024/02/17 07:21:24;;;;;;;2.35;0.63;;;5.70;92.20;;;;;;5050988;28;20429;-69
2024/02/17 07:23:50;;;;;;;0.25;0.25;;;5.70;91.50;;;;;;5054666;28;20111;-69
2024/02/17 07:26:16;;;;;;;0.65;0.28;;;5.80;91.40;;;;;;5044979;28;20060;-69
2024/02/17 07:28:42;;;;;;;0.80;0.30;;;5.80;92.00;;;;;;5054234;28;20040;-69
2024/02/17 07:31:12;;;;;;;1.75;0.80;;;5.80;91.90;;;;;;5051793;28;20028;-69
2024/02/17 07:33:38;;;;;;;0.40;0.40;;;5.80;91.30;;;;;;5048008;28;20048;-69
2024/02/17 07:36:04;;;;;;;1.52;0.38;;;5.90;91.80;;;;;;5053470;28;20028;-69
2024/02/17 07:38:30;;;;;;;0.52;0.30;;;5.90;91.70;;;;;;5051141;28;20051;-68
2024/02/17 07:40:55;;;;;;;1.20;0.65;;;5.90;92.00;;;;;;5051286;28;20029;-69
2024/02/17 07:43:21;;;;;;;1.75;0.60;;;5.90;92.20;;;;;;5053214;28;20040;-69
2024/02/17 07:45:48;;;;;;;0.25;0.25;;;5.80;91.40;;;;;;5047502;28;20303;-69
2024/02/17 07:48:15;;;;;;;4.30;0.93;;;5.90;91.70;;;;;;5051412;28;20036;-69
2024/02/17 07:50:40;;;;;;;1.95;0.50;;;5.90;92.00;;;;;;5052978;28;20033;-70
2024/02/17 07:53:06;;;;;;;2.67;0.50;;;5.90;92.20;;;;;;5050139;28;20091;-69
2024/02/17 07:55:31;;;;;;;1.83;0.45;;;5.90;92.40;;;;;;5052330;28;20043;-69
2024/02/17 07:57:57;;;;;;;1.17;0.50;;;5.90;92.30;;;;;;5054888;28;20037;-70
2024/02/17 08:00:23;;;;;;;0.22;0.22;;;5.90;92.40;;;;;;5053552;28;20040;-69
2024/02/17 08:02:50;;;;;;;1.95;0.93;;;5.90;91.60;;;;;;5048385;28;20542;-69
2024/02/17 08:05:16;;;;;;;0.98;0.40;;;5.90;91.80;;;;;;5053678;28;20077;-69
2024/02/17 08:07:45;;;;;;;2.97;0.95;;;5.90;92.10;;;;;;5049223;28;20480;-69
2024/02/17 08:10:13;;;;;;;3.38;0.35;;;5.90;92.30;;;;;;5047309;28;20071;-69
2024/02/17 08:12:39;;;;;;;0.75;0.50;;;5.90;91.50;;;;;;5050195;28;20032;-69
2024/02/17 08:15:06;;;;;;;0.47;0.47;;;6.00;91.80;;;;;;5049383;28;20052;-69
2024/02/17 08:17:35;;;;;;;0.45;0.38;;;6.00;91.30;;;;;;5050477;28;20344;-69
2024/02/17 08:20:02;;;;;;;2.75;0.45;;;6.00;90.90;;;;;;5046404;28;20101;-69
2024/02/17 08:22:28;;;;;;;0.82;0.60;;;6.10;91.00;;;;;;5050527;28;20021;-69
2024/02/17 08:24:53;;;;;;;2.80;0.60;;;6.10;90.90;;;;;;5046866;28;20024;-69
2024/02/17 08:27:20;;;;;;;1.65;0.40;;;6.10;91.10;;;;;;5044651;28;20364;-69
2024/02/17 08:29:45;;;;;;;0.82;0.60;;;6.10;90.90;;;;;;5050989;28;20440;-70
2024/02/17 08:32:11;;;;;;;0.63;0.32;;;6.00;90.30;;;;;;5050215;28;20073;-69
2024/02/17 08:34:36;;;;;;;0.40;0.40;;;6.10;90.70;;;;;;5042412;28;20057;-70
2024/02/17 08:37:02;;;;;;;2.17;0.45;;;6.10;91.10;;;;;;5049643;28;20119;-69
2024/02/17 08:39:27;;;;;;;1.35;0.40;;;6.20;90.50;;;;;;5047561;28;20033;-69
2024/02/17 08:41:54;;;;;;;1.23;0.63;;;6.10;90.40;;;;;;5044969;28;20041;-67
2024/02/17 08:44:19;;;;;;;0.30;0.25;;;6.20;90.00;;;;;;5046282;28;20202;-67
2024/02/17 08:46:44;;;;;;;0.85;0.50;;;6.20;89.40;;;;;;5044581;28;20467;-68
2024/02/17 08:49:10;;;;;;;0.80;0.50;;;6.20;89.10;;;;;;5049802;28;20037;-68
2024/02/17 08:51:38;;;;;;;2.03;0.50;;;6.20;89.40;;;;;;5047174;28;20029;-67
2024/02/17 08:54:04;;;;;;;2.65;0.52;;;6.30;89.80;;;;;;5051799;28;20041;-68
2024/02/17 08:56:30;;;;;;;0.60;0.35;;;6.30;89.50;;;;;;5045793;28;20517;-67
2024/02/17 08:58:55;;;;;;;1.23;0.40;;;6.40;89.70;;;;;;5044070;28;20124;-67
2024/02/17 09:01:21;;;;;;;0.55;0.30;;;6.30;89.00;;;;;;5046379;28;20045;-69
2024/02/17 09:03:46;;;;;;;0.80;0.50;;;6.40;88.70;;;;;;5049193;28;20044;-69
2024/02/17 09:06:12;;;;;;;3.65;0.30;;;6.40;89.00;;;;;;5047217;28;20029;-68
2024/02/17 09:08:38;;;;;;;0.43;0.30;;;6.40;89.00;;;;;;5044870;28;20059;-67
2024/02/17 09:11:04;;;;;;;0.40;0.35;;;6.50;89.60;;;;;;5046511;28;20047;-66
2024/02/17 09:13:29;;;;;;;2.90;0.60;;;6.50;89.30;;;;;;5035081;28;20123;-67
2024/02/17 09:15:55;;;;;;;0.75;0.50;;;6.50;87.80;;;;;;5041455;28;20447;-68
2024/02/17 09:18:22;;;;;;;2.67;0.50;;;6.50;86.90;;;;;;5040809;28;20033;-69
2024/02/17 09:20:49;;;;;;;0.32;0.30;;;6.60;87.20;;;;;;5043968;28;20090;-67
2024/02/17 09:23:14;;;;;;;0.30;0.30;;;6.70;88.10;;;;;;5044714;28;20470;-67
2024/02/17 09:25:40;;;;;;;2.25;0.40;;;6.60;88.40;;;;;;5024040;28;20131;-69
2024/02/17 09:28:06;;;;;;;2.30;0.60;;;6.70;88.90;;;;;;5045696;28;20098;-71
2024/02/17 09:30:34;;;;;;;3.55;1.15;;;6.70;88.90;;;;;;5029375;28;20032;-67
2024/02/17 09:33:00;;;;;;;1.17;0.40;;;6.60;87.20;;;;;;5046774;28;20130;-67
2024/02/17 09:35:25;;;;;;;0.95;0.38;;;6.80;88.00;;;;;;5039702;28;20069;-67
2024/02/17 09:37:51;;;;;;;2.63;0.45;;;6.90;87.50;;;;;;5044766;28;20033;-66
2024/02/17 09:40:17;;;;;;;1.92;0.45;;;6.90;86.80;;;;;;5044708;28;20491;-67
2024/02/17 09:42:44;;;;;;;2.30;0.80;;;6.90;85.80;;;;;;5045877;28;20112;-67
2024/02/17 09:45:10;;;;;;;0.38;0.20;;;6.90;85.80;;;;;;5047885;28;20510;-67
2024/02/17 09:47:35;;;;;;;4.38;0.52;;;6.90;85.70;;;;;;5042543;28;20104;-67
2024/02/17 09:50:02;;;;;;;3.53;0.68;;;6.90;85.10;;;;;;5045695;28;20342;-67
2024/02/17 09:52:28;;;;;;;4.00;0.60;;;6.90;85.00;;;;;;5051297;28;20451;-67
2024/02/17 09:54:56;;;;;;;0.63;0.38;;;6.90;86.10;;;;;;5042190;28;20403;-68
2024/02/17 09:57:21;;;;;;;3.03;0.73;;;7.00;86.00;;;;;;5047614;28;20036;-67
2024/02/17 09:59:47;;;;;;;2.50;0.90;;;7.00;86.90;;;;;;5040708;28;20056;-67
2024/02/17 10:02:12;;;;;;;1.55;0.52;;;6.90;86.90;;;;;;5023391;28;20379;-67
2024/02/17 10:04:55;;;;;;;3.58;0.60;;;7.10;86.50;;;;;;5044556;28;20039;-66
2024/02/17 10:07:21;;;;;;;0.47;0.40;;;7.30;83.50;;;;;;5041687;28;20052;-66
2024/02/17 10:09:47;;;;;;;4.00;1.15;;;7.50;81.40;;;;;;5051476;28;20048;-68
2024/02/17 10:12:13;;;;;;;2.75;0.47;;;7.80;80.70;;;;;;5043821;28;20332;-67
2024/02/17 10:14:39;;;;;;;0.77;0.57;;;7.80;81.10;;;;;;5046690;28;20090;-67
2024/02/17 10:17:08;;;;;;;5.22;1.25;;;7.90;81.30;;;;;;5043621;28;20152;-68
2024/02/17 10:19:33;;;;;;;0.32;0.25;;;7.80;81.00;;;;;;5044205;28;20483;-67
2024/02/17 10:21:59;;;;;;;2.45;0.50;;;7.60;80.20;;;;;;5041643;28;20111;-67
2024/02/17 10:24:25;;;;;;;1.40;0.57;;;7.40;81.50;;;;;;5042945;28;20042;-67
2024/02/17 10:26:54;;;;;;;0.90;0.50;;;7.10;81.90;;;;;;5040907;28;20549;-68
2024/02/17 10:29:20;;;;;;;2.20;0.50;;;7.00;81.80;;;;;;5040920;28;20084;-68
2024/02/17 10:31:50;;;;;;;3.40;0.88;;;7.00;81.40;;;;;;5036812;28;21116;-68
2024/02/17 10:34:16;;;;;;;1.67;0.40;;;7.10;81.00;;;;;;5039368;28;20398;-68
2024/02/17 10:36:42;;;;;;;1.25;0.45;;;6.90;81.50;;;;;;5040505;28;20133;-67
2024/02/17 10:39:08;;;;;;;2.63;0.85;;;6.90;81.90;;;;;;5039890;28;20052;-68
2024/02/17 10:41:37;;;;;;;2.53;0.90;;;6.90;81.60;;;;;;5042903;28;20196;-68
2024/02/17 10:44:03;;;;;;;3.15;0.90;;;6.80;81.80;;;;;;5046693;28;20032;-68
2024/02/17 10:46:29;;;;;;;2.22;0.80;;;6.70;82.20;;;;;;5044350;28;20164;-68
2024/02/17 10:49:16;;;;;;;1.48;0.50;;;6.90;82.80;;;;;;5044175;28;20192;-66
2024/02/17 10:51:55;;;;;;;1.10;0.20;;;7.10;82.30;;;;;;5047841;28;20088;-68
2024/02/17 10:54:30;;;;;;;1.63;0.43;;;7.00;82.60;;;;;;5041931;28;20033;-67
2024/02/17 10:56:56;;;;;;;1.48;0.40;;;7.00;82.30;;;;;;5039651;28;20052;-66
2024/02/17 10:59:24;;;;;;;3.08;0.90;;;6.80;81.70;;;;;;5046212;28;20377;-67
2024/02/17 11:01:52;;;;;;;2.47;0.65;;;6.90;82.70;;;;;;5042130;28;20028;-67
2024/02/17 11:04:19;;;;;;;1.73;0.68;;;7.10;82.20;;;;;;5038382;28;20413;-67
2024/02/17 11:06:45;;;;;;;1.27;0.63;;;7.30;81.70;;;;;;5047449;28;20393;-66
2024/02/17 11:09:11;;;;;;;1.23;0.47;;;7.80;80.30;;;;;;5032758;28;20059;-66
2024/02/17 11:11:39;;;;;;;1.63;0.35;;;8.10;80.10;;;;;;5037990;28;20467;-66
2024/02/17 11:14:35;;;;;;;2.72;0.40;;;8.60;79.90;;;;;;5043389;28;20021;-66
2024/02/17 11:17:01;;;;;;;2.72;0.40;;;8.80;77.40;;;;;;5041004;28;20061;-66
2024/02/17 11:19:26;;;;;;;1.98;0.60;;;9.20;77.90;;;;;;5022335;28;20039;-68
2024/02/17 11:21:55;;;;;;;4.00;0.52;;;9.10;76.90;;;;;;5039286;28;20033;-68
2024/02/17 11:24:22;;;;;;;5.90;1.15;;;9.50;77.40;;;;;;5043451;28;20053;-67
2024/02/17 11:26:47;;;;;;;1.20;0.45;;;9.00;75.00;;;;;;5048042;28;20163;-67
2024/02/17 11:29:32;;;;;;;1.05;0.40;;;9.00;75.00;;;;;;5046358;28;20109;-68
2024/02/17 11:32:02;;;;;;;1.17;0.30;;;9.10;75.40;;;;;;5042695;28;20044;-68
2024/02/17 11:34:28;;;;;;;1.23;0.40;;;9.60;75.60;;;;;;5038764;28;20021;-67
2024/02/17 11:36:57;;;;;;;3.72;0.52;;;9.50;74.20;;;;;;5042245;28;20462;-67
2024/02/17 11:39:26;;;;;;;0.55;0.43;;;9.60;74.40;;;;;;5050044;28;20033;-67
2024/02/17 11:41:52;;;;;;;3.33;0.70;;;9.80;74.20;;;;;;5044221;28;20440;-67
2024/02/17 11:44:17;;;;;;;2.63;0.90;;;9.70;74.10;;;;;;5046151;28;20040;-67
2024/02/17 11:46:44;;;;;;;2.13;0.73;;;9.00;75.30;;;;;;5037104;28;20150;-68
2024/02/17 11:49:10;;;;;;;2.65;0.63;;;9.10;74.80;;;;;;5045422;28;20039;-67
2024/02/17 11:51:36;;;;;;;1.90;0.57;;;8.60;76.50;;;;;;5043870;28;20448;-68
2024/02/17 11:54:02;;;;;;;0.98;0.30;;;8.50;77.60;;;;;;5043715;28;20037;-67
2024/02/17 11:56:28;;;;;;;4.45;0.60;;;8.50;78.30;;;;;;5039730;28;20035;-68
2024/02/17 11:58:54;;;;;;;3.65;0.57;;;8.20;78.80;;;;;;5044206;28;20478;-67
2024/02/17 12:01:20;;;;;;;3.05;0.60;;;8.50;79.30;;;;;;5041065;28;20033;-67
2024/02/17 12:03:45;;;;;;;4.75;0.98;;;8.70;79.00;;;;;;5048220;28;20364;-67
2024/02/17 12:06:11;;;;;;;1.67;0.80;;;8.80;78.30;;;;;;5046081;28;20039;-68
2024/02/17 12:08:37;;;;;;;0.85;0.30;;;9.00;78.10;;;;;;5049743;28;20091;-68
2024/02/17 12:11:03;;;;;;;4.05;0.60;;;9.10;74.30;;;;;;5047080;28;20385;-68
2024/02/17 12:13:29;;;;;;;4.40;1.08;;;9.10;73.90;;;;;;5047479;28;20017;-68
2024/02/17 12:16:04;;;;;;;1.20;0.40;;;9.30;75.90;;;;;;5048040;28;20063;-67
2024/02/17 12:18:29;;;;;;;1.42;0.70;;;9.10;75.50;;;;;;5048779;28;20040;-67
2024/02/17 12:20:55;;;;;;;1.65;0.40;;;8.80;75.80;;;;;;5048237;28;20111;-68
2024/02/17 12:23:20;;;;;;;2.17;0.60;;;9.00;74.70;;;;;;5047153;28;20238;-68
2024/02/17 12:25:50;;;;;;;5.93;0.50;;;9.30;74.00;;;;;;5028298;28;20087;-68
2024/02/17 12:28:15;;;;;;;4.57;0.70;;;9.80;74.20;;;;;;5044330;28;20037;-67
2024/02/17 12:30:48;;;;;;;1.60;0.40;;;10.10;72.70;;;;;;5047067;28;20064;-68
2024/02/17 12:33:19;;;;;;;1.85;0.50;;;10.30;72.00;;;;;;5046936;28;20136;-68
2024/02/17 12:35:48;;;;;;;2.75;0.52;;;10.50;70.90;;;;;;5044267;28;20021;-68
2024/02/17 12:38:19;;;;;;;4.03;0.80;;;10.00;70.10;;;;;;5052902;28;20173;-68
2024/02/17 12:40:45;;;;;;;3.00;0.35;;;10.30;70.90;;;;;;5039042;28;20108;-68
2024/02/17 12:43:19;;;;;;;2.70;0.82;;;10.10;72.10;;;;;;5045409;28;20056;-67
2024/02/17 12:45:45;;;;;;;3.90;0.60;;;10.80;70.90;;;;;;5045268;28;20435;-69
2024/02/17 12:48:11;;;;;;;3.80;0.60;;;10.70;70.30;;;;;;5045080;28;20029;-70
2024/02/17 12:50:37;;;;;;;2.92;0.30;;;10.10;71.50;;;;;;5051867;28;20512;-70
2024/02/17 12:53:23;;;;;;;4.28;0.80;;;9.30;72.80;;;;;;5047831;28;20041;-70
2024/02/17 12:55:53;;;;;;;1.35;0.52;;;9.10;74.40;;;;;;5049544;28;20112;-69